LGIR/HER METAR and TAF weather

Enter ICAO airport designator
Station Type Date Time Source
LGIR METAR 2020/11/25 22:50 UTC NOAA

LGIR 252250Z 35020KT 9999 FEW018 BKN040 16/11 Q1017 NOSIG


Station Type Date Time Source
LGIR Decoded METAR 2020/11/25 22:50 UTC NOAA

Heraklion Airport , Greece (LGIR) 35-20N 025-11E 39M
Nov 25, 2020 - 05:50 PM EST / 2020.11.25 2250 UTC
Wind: from the N (350 degrees) at 23 MPH (20 KT):0
Visibility: greater than 7 mile(s):0
Sky conditions: mostly cloudy
Temperature: 60 F (16 C)
Dew Point: 51 F (11 C)
Relative Humidity: 72%
Pressure (altimeter): 30.03 in. Hg (1017 hPa)
ob: LGIR 252250Z 35020KT 9999 FEW018 BKN040 16/11 Q1017 NOSIG
cycle: 23

Station Type Date Time Source
LGIR TAF 2020/11/25 18:16 UTC NOAA

TAF LGIR 251700Z 2518/2618 35015KT 9999 FEW018 BKN035
TEMPO 2518/2612 34015G25KT

Example: see airport list